Karin S — V2BM6 — position and weather

sailwx.info

Track history (hours):
 
Tides and Currents Weather Stations Pressure Air Temp Water Temp Dewpoint Dewpoint Depression Visibility Wind Speed Wind Dir Waves Ship Positions

Karin S

Last reported at 2014-Sep-15 23:10 UTC. Time now 2014-Sep-16 00:59 UTC.
Position N 40°20' E 002°10'.

Length 148 m; draft 7 m.

Type: Ship. MMSI: 304871000.

Date/timePositionNaut miles runAvg speedWind from/ knotsBaromVisibWave heightAir tempDewpointWater temp
2014-Sep-15 23:10N 40°20' E 002°10'1614.1
2014-Sep-15 22:03N 40°36' E 002°10'813.7
2014-Sep-15 21:28N 40°44' E 002°10'1614.5
2014-Sep-15 20:24N 40°59' E 002°11'34 1.3
2014-Sep-14 17:21N 40°41' E 001°32'9 9.7
2014-Sep-14 16:23N 40°36' E 001°22'12 9.6
2014-Sep-14 15:11N 40°29' E 001°09'811.2
2014-Sep-14 14:26N 40°24' E 001°00'9 8.8
2014-Sep-14 13:24N 40°19' E 000°50'40 1.9
2014-Sep-13 16:13N 39°57' E 000°06'2 2.7
2014-Sep-13 15:33N 39°56' E 000°07'73 9.9
2014-Sep-13 08:11N 38°56' E 001°01'711.0
2014-Sep-13 07:33N 38°50' E 001°06'1512.1
2014-Sep-13 06:17N 38°37' E 001°17'710.1
2014-Sep-13 05:33N 38°31' E 001°22'1010.2
2014-Sep-13 04:33N 38°23' E 001°31'1010.0
2014-Sep-13 03:34N 38°16' E 001°39'1010.0
2014-Sep-13 02:31N 38°08' E 001°47'9 9.7
2014-Sep-13 01:33N 38°00' E 001°54'10 9.7
2014-Sep-13 00:33N 37°53' E 002°02'10 9.8
2014-Sep-12 23:33N 37°45' E 002°10'1010.0
2014-Sep-12 22:33N 37°37' E 002°18'1010.3
2014-Sep-12 21:33N 37°29' E 002°26'1010.5
2014-Sep-12 20:33N 37°21' E 002°34'1010.3
2014-Sep-12 19:34N 37°13' E 002°42'10 9.9
2014-Sep-12 18:32N 37°05' E 002°51'10 9.7
2014-Sep-12 17:27N 36°57' E 002°59'9 9.4
2014-Sep-12 16:32N 36°50' E 003°06'5 2.3
2014-Sep-12 14:33N 36°46' E 003°04'0 0.0
2014-Sep-12 01:08N 36°46' E 003°04'0 0.0
2014-Sep-11 23:20N 36°46' E 003°04'0 0.0
2014-Sep-11 22:16N 36°46' E 003°04'0 0.0
2014-Sep-11 21:24N 36°46' E 003°04'0 0.0
2014-Sep-11 06:06N 36°46' E 003°04'0 0.0
2014-Sep-10 22:28N 36°46' E 003°04'0 0.0
2014-Sep-09 23:05N 36°46' E 003°04'0 0.0
2014-Sep-09 22:05N 36°46' E 003°04'0 0.0
2014-Sep-09 21:32N 36°46' E 003°04'0 0.0
2014-Sep-09 11:09N 36°46' E 003°04'0 0.0
2014-Sep-09 06:13N 36°46' E 003°04'0 0.0
2014-Sep-09 04:15N 36°46' E 003°04'0 0.0
2014-Sep-09 03:33N 36°46' E 003°04'0 0.0
2014-Sep-09 02:33N 36°46' E 003°04'0 0.0
2014-Sep-08 22:33N 36°46' E 003°04'0 0.0
2014-Sep-07 08:14N 36°46' E 003°04'0 0.0
2014-Sep-07 07:33N 36°46' E 003°04'0 0.0
2014-Sep-07 05:11N 36°46' E 003°04'0 0.0
2014-Sep-07 04:29N 36°46' E 003°04'0 0.0
2014-Sep-07 01:23N 36°46' E 003°04'0 0.0
2014-Sep-06 23:29N 36°46' E 003°04'0 0.0
2014-Sep-06 20:23N 36°46' E 003°04'0 0.0
2014-Sep-06 17:05N 36°46' E 003°04'0 0.0
2014-Sep-06 13:29N 36°46' E 003°04'  
Track history (hours):
 
Tides and Currents Weather Stations Pressure Air Temp Water Temp Dewpoint Dewpoint Depression Visibility Wind Speed Wind Dir Waves Ship Positions

Karin S

Last reported at 2014-Sep-15 23:10 UTC. Time now 2014-Sep-16 00:59 UTC.
Position N 40°20' E 002°10'.

Length 148 m; draft 7 m.

Type: Ship. MMSI: 304871000.

Date/timePositionNaut miles runAvg speedWind from/ knotsBaromVisibWave heightAir tempDewpointWater temp
2014-Sep-15 23:10N 40°20' E 002°10'1614.1
2014-Sep-15 22:03N 40°36' E 002°10'813.7
2014-Sep-15 21:28N 40°44' E 002°10'1614.5
2014-Sep-15 20:24N 40°59' E 002°11'34 1.3
2014-Sep-14 17:21N 40°41' E 001°32'9 9.7
2014-Sep-14 16:23N 40°36' E 001°22'12 9.6
2014-Sep-14 15:11N 40°29' E 001°09'811.2
2014-Sep-14 14:26N 40°24' E 001°00'9 8.8
2014-Sep-14 13:24N 40°19' E 000°50'40 1.9
2014-Sep-13 16:13N 39°57' E 000°06'2 2.7
2014-Sep-13 15:33N 39°56' E 000°07'73 9.9
2014-Sep-13 08:11N 38°56' E 001°01'711.0
2014-Sep-13 07:33N 38°50' E 001°06'1512.1
2014-Sep-13 06:17N 38°37' E 001°17'710.1
2014-Sep-13 05:33N 38°31' E 001°22'1010.2
2014-Sep-13 04:33N 38°23' E 001°31'1010.0
2014-Sep-13 03:34N 38°16' E 001°39'1010.0
2014-Sep-13 02:31N 38°08' E 001°47'9 9.7
2014-Sep-13 01:33N 38°00' E 001°54'10 9.7
2014-Sep-13 00:33N 37°53' E 002°02'10 9.8
2014-Sep-12 23:33N 37°45' E 002°10'1010.0
2014-Sep-12 22:33N 37°37' E 002°18'1010.3
2014-Sep-12 21:33N 37°29' E 002°26'1010.5
2014-Sep-12 20:33N 37°21' E 002°34'1010.3
2014-Sep-12 19:34N 37°13' E 002°42'10 9.9
2014-Sep-12 18:32N 37°05' E 002°51'10 9.7
2014-Sep-12 17:27N 36°57' E 002°59'9 9.4
2014-Sep-12 16:32N 36°50' E 003°06'5 2.3
2014-Sep-12 14:33N 36°46' E 003°04'0 0.0
2014-Sep-12 01:08N 36°46' E 003°04'0 0.0
2014-Sep-11 23:20N 36°46' E 003°04'0 0.0
2014-Sep-11 22:16N 36°46' E 003°04'0 0.0
2014-Sep-11 21:24N 36°46' E 003°04'0 0.0
2014-Sep-11 06:06N 36°46' E 003°04'0 0.0
2014-Sep-10 22:28N 36°46' E 003°04'0 0.0
2014-Sep-09 23:05N 36°46' E 003°04'0 0.0
2014-Sep-09 22:05N 36°46' E 003°04'0 0.0
2014-Sep-09 21:32N 36°46' E 003°04'0 0.0
2014-Sep-09 11:09N 36°46' E 003°04'0 0.0
2014-Sep-09 06:13N 36°46' E 003°04'0 0.0
2014-Sep-09 04:15N 36°46' E 003°04'0 0.0
2014-Sep-09 03:33N 36°46' E 003°04'0 0.0
2014-Sep-09 02:33N 36°46' E 003°04'0 0.0
2014-Sep-08 22:33N 36°46' E 003°04'0 0.0
2014-Sep-07 08:14N 36°46' E 003°04'0 0.0
2014-Sep-07 07:33N 36°46' E 003°04'0 0.0
2014-Sep-07 05:11N 36°46' E 003°04'0 0.0
2014-Sep-07 04:29N 36°46' E 003°04'0 0.0
2014-Sep-07 01:23N 36°46' E 003°04'0 0.0
2014-Sep-06 23:29N 36°46' E 003°04'0 0.0
2014-Sep-06 20:23N 36°46' E 003°04'0 0.0
2014-Sep-06 17:05N 36°46' E 003°04'0 0.0
2014-Sep-06 13:29N 36°46' E 003°04'  

Dump ship's entire track history